Time;durP1;ratioP1;P1;durP2;ratioP2;P2;SDS_P1;SDS_P2;PMS_P1;PMS_P2;Temp;Humidity;BMP_temperature;BMP_pressure;BME280_temperature;BME280_humidity;BME280_pressure;Samples;Min_cycle;Max_cycle;Signal;HPM_P1;HPM_P2
2021/12/05 00:18:31;;;;;;;24.38;12.93;;;;;;;;;;5000003;28;20049;-35
2021/12/05 00:23:52;;;;;;;26.77;13.13;;;;;;;;;;5009626;28;20049;-35
2021/12/05 00:26:20;;;;;;;26.10;13.80;;;;;;;;;;5008755;28;20041;-35
2021/12/05 00:44:34;;;;;;;32.40;14.05;;;;;;;;;;5008794;28;20034;-35
2021/12/05 00:55:03;;;;;;;32.30;15.38;;;;;;;;;;5010962;28;20034;-35
2021/12/05 00:57:40;;;;;;;32.45;15.40;;;;;;;;;;5008632;28;20114;-35
2021/12/05 01:11:06;;;;;;;34.35;15.15;;;;;;;;;;5008981;28;20117;-35
2021/12/05 01:13:37;;;;;;;34.65;15.82;;;;;;;;;;5009185;28;20034;-35
2021/12/05 01:16:11;;;;;;;32.25;15.73;;;;;;;;;;5007251;28;20088;-36
2021/12/05 01:18:38;;;;;;;30.42;14.98;;;;;;;;;;5008881;28;20408;-35
2021/12/05 01:21:07;;;;;;;34.47;16.08;;;;;;;;;;5008676;28;20030;-34
2021/12/05 01:23:43;;;;;;;32.47;15.43;;;;;;;;;;5009707;28;20022;-35
2021/12/05 01:26:24;;;;;;;32.22;14.65;;;;;;;;;;5008395;28;20409;-35
2021/12/05 01:37:10;;;;;;;34.45;16.95;;;;;;;;;;5006098;28;20038;-36
2021/12/05 01:39:52;;;;;;;30.95;16.00;;;;;;;;;;5003591;28;20108;-35
2021/12/05 01:52:56;;;;;;;34.10;15.85;;;;;;;;;;5012928;28;20037;-34
2021/12/05 01:56:02;;;;;;;30.17;16.30;;;;;;;;;;5011961;28;20152;-35
2021/12/05 01:58:50;;;;;;;37.45;17.35;;;;;;;;;;5010274;28;20048;-35
2021/12/05 02:34:28;;;;;;;40.42;16.85;;;;;;;;;;4969710;28;20031;-45
2021/12/05 02:39:33;;;;;;;41.92;18.42;;;;;;;;;;4970812;28;20039;-44
2021/12/05 02:42:08;;;;;;;38.47;17.58;;;;;;;;;;4973189;28;20041;-43
2021/12/05 02:44:35;;;;;;;41.22;17.30;;;;;;;;;;4970936;28;20019;-43
2021/12/05 02:47:08;;;;;;;41.17;17.13;;;;;;;;;;4972160;28;20070;-43
2021/12/05 02:49:35;;;;;;;34.22;15.85;;;;;;;;;;4971431;28;20035;-43
2021/12/05 02:52:05;;;;;;;41.58;17.73;;;;;;;;;;4967001;28;20114;-44
2021/12/05 02:54:36;;;;;;;39.70;17.63;;;;;;;;;;4967684;28;20457;-45
2021/12/05 02:57:02;;;;;;;38.28;16.88;;;;;;;;;;4970694;28;20073;-43
2021/12/05 03:02:13;;;;;;;45.17;19.88;;;;;;;;;;4972312;28;20031;-43
2021/12/05 03:04:43;;;;;;;40.70;18.48;;;;;;;;;;4968910;28;20019;-44
2021/12/05 03:07:10;;;;;;;41.53;19.33;;;;;;;;;;4972601;28;20022;-44
2021/12/05 03:09:37;;;;;;;39.45;18.55;;;;;;;;;;4972398;28;20159;-44
2021/12/05 03:12:04;;;;;;;41.88;17.05;;;;;;;;;;4972883;28;20595;-43
2021/12/05 03:14:30;;;;;;;48.63;20.00;;;;;;;;;;4970519;28;20038;-43
2021/12/05 03:16:56;;;;;;;41.50;18.50;;;;;;;;;;4971420;28;20116;-43
2021/12/05 03:19:22;;;;;;;45.00;18.70;;;;;;;;;;4970981;28;20170;-43
2021/12/05 03:21:49;;;;;;;48.72;19.60;;;;;;;;;;4971605;28;20569;-44
2021/12/05 03:24:17;;;;;;;46.10;18.77;;;;;;;;;;4966915;28;20027;-43
2021/12/05 03:26:44;;;;;;;48.17;19.95;;;;;;;;;;4971461;28;20026;-44
2021/12/05 03:29:11;;;;;;;47.05;19.52;;;;;;;;;;4963850;28;20176;-44
2021/12/05 03:31:38;;;;;;;45.28;17.75;;;;;;;;;;4968168;28;20473;-44
2021/12/05 03:34:05;;;;;;;44.90;19.20;;;;;;;;;;4971132;28;20035;-42
2021/12/05 03:36:32;;;;;;;47.22;19.30;;;;;;;;;;4963587;28;20109;-44
2021/12/05 03:38:58;;;;;;;46.97;18.63;;;;;;;;;;4969766;28;20033;-44
2021/12/05 03:41:24;;;;;;;49.88;19.77;;;;;;;;;;4971138;28;20037;-45
2021/12/05 03:43:52;;;;;;;38.83;18.15;;;;;;;;;;4970640;28;20034;-44
2021/12/05 03:46:19;;;;;;;53.10;21.27;;;;;;;;;;4970563;28;20051;-44
2021/12/05 03:48:47;;;;;;;46.10;18.60;;;;;;;;;;4968205;28;20027;-44
2021/12/05 03:51:14;;;;;;;47.45;18.90;;;;;;;;;;4970393;28;20023;-44
2021/12/05 03:53:40;;;;;;;48.85;20.08;;;;;;;;;;4970689;28;20027;-45
2021/12/05 03:56:08;;;;;;;52.72;18.70;;;;;;;;;;4966050;28;20486;-45
2021/12/05 03:58:35;;;;;;;50.20;18.77;;;;;;;;;;4969349;28;20058;-44
2021/12/05 04:01:02;;;;;;;53.92;20.25;;;;;;;;;;4970644;28;20564;-44
2021/12/05 04:03:29;;;;;;;50.50;20.20;;;;;;;;;;4970181;28;20038;-43
2021/12/05 04:05:55;;;;;;;59.08;20.20;;;;;;;;;;4966604;28;20037;-44
2021/12/05 04:08:23;;;;;;;52.42;21.20;;;;;;;;;;4961368;28;20070;-44
2021/12/05 04:10:52;;;;;;;48.10;18.90;;;;;;;;;;4962876;28;20023;-44
2021/12/05 04:13:19;;;;;;;57.70;20.25;;;;;;;;;;4964134;28;20049;-43
2021/12/05 04:15:45;;;;;;;59.47;21.35;;;;;;;;;;4954820;28;20046;-44
2021/12/05 04:18:11;;;;;;;66.88;20.50;;;;;;;;;;4964218;28;20123;-44
2021/12/05 04:20:37;;;;;;;62.15;20.20;;;;;;;;;;4952453;28;20031;-44
2021/12/05 04:23:03;;;;;;;58.80;22.27;;;;;;;;;;4960111;28;20442;-43
2021/12/05 04:25:33;;;;;;;64.13;21.20;;;;;;;;;;4967095;28;20023;-45
2021/12/05 04:27:59;;;;;;;57.83;20.55;;;;;;;;;;4956956;28;20501;-44
2021/12/05 04:30:26;;;;;;;56.30;19.98;;;;;;;;;;4963192;28;20035;-44
2021/12/05 04:32:52;;;;;;;50.78;19.92;;;;;;;;;;4954891;28;20035;-44
2021/12/05 04:35:18;;;;;;;58.80;20.90;;;;;;;;;;4957027;28;20153;-43
2021/12/05 04:37:45;;;;;;;60.80;20.10;;;;;;;;;;4954691;28;20111;-43
2021/12/05 04:40:11;;;;;;;61.53;20.45;;;;;;;;;;4960816;28;20026;-44
2021/12/05 04:42:37;;;;;;;59.33;20.58;;;;;;;;;;4957919;28;20440;-43
2021/12/05 04:45:06;;;;;;;69.72;21.33;;;;;;;;;;4958635;28;20442;-44
2021/12/05 04:47:32;;;;;;;59.65;19.73;;;;;;;;;;4957654;28;20034;-44
2021/12/05 04:49:58;;;;;;;58.95;20.13;;;;;;;;;;4952486;28;20067;-44
2021/12/05 04:52:24;;;;;;;63.22;20.08;;;;;;;;;;4961454;28;20062;-45
2021/12/05 04:54:50;;;;;;;64.47;22.95;;;;;;;;;;4960145;28;20042;-44
2021/12/05 04:57:16;;;;;;;55.90;20.83;;;;;;;;;;4965344;28;20054;-44
2021/12/05 04:59:49;;;;;;;63.70;22.05;;;;;;;;;;4958014;28;20016;-46
2021/12/05 05:02:16;;;;;;;63.08;21.48;;;;;;;;;;4960341;28;20378;-44
2021/12/05 05:04:45;;;;;;;60.00;21.60;;;;;;;;;;4959048;28;20118;-45
2021/12/05 05:07:22;;;;;;;62.55;22.52;;;;;;;;;;4959184;28;20114;-44
2021/12/05 05:09:50;;;;;;;63.10;21.23;;;;;;;;;;4961011;28;20039;-44
2021/12/05 05:12:16;;;;;;;64.05;21.80;;;;;;;;;;4962684;28;20483;-44
2021/12/05 05:14:42;;;;;;;56.30;19.95;;;;;;;;;;4958023;28;20055;-44
2021/12/05 05:17:08;;;;;;;69.95;22.42;;;;;;;;;;4958400;28;20027;-43
2021/12/05 05:19:39;;;;;;;74.28;21.33;;;;;;;;;;4966184;28;20422;-44
2021/12/05 05:22:22;;;;;;;71.20;21.60;;;;;;;;;;4960895;28;20024;-45
2021/12/05 05:27:52;;;;;;;67.93;21.92;;;;;;;;;;4968785;28;20031;-45
2021/12/05 05:30:37;;;;;;;63.28;22.23;;;;;;;;;;4959899;28;20031;-44
2021/12/05 05:41:56;;;;;;;57.20;20.20;;;;;;;;;;4961745;28;20115;-44
2021/12/05 05:47:04;;;;;;;64.37;20.10;;;;;;;;;;4963356;28;20046;-44
2021/12/05 05:49:47;;;;;;;58.65;20.15;;;;;;;;;;4967577;28;20030;-44
2021/12/05 05:52:15;;;;;;;62.85;20.52;;;;;;;;;;4963215;28;20091;-44
2021/12/05 05:54:45;;;;;;;62.50;21.52;;;;;;;;;;4969561;28;20109;-43
2021/12/05 05:57:20;;;;;;;62.70;19.95;;;;;;;;;;4967081;28;20050;-44
2021/12/05 06:05:10;;;;;;;59.60;22.40;;;;;;;;;;4962979;28;20112;-43
2021/12/05 06:07:41;;;;;;;59.90;19.20;;;;;;;;;;4967440;28;20455;-43
2021/12/05 06:10:09;;;;;;;49.03;18.00;;;;;;;;;;4971541;28;20110;-44
2021/12/05 06:12:35;;;;;;;52.22;18.00;;;;;;;;;;4965151;28;20096;-45
2021/12/05 06:15:01;;;;;;;54.08;17.83;;;;;;;;;;4969036;28;20537;-43
2021/12/05 06:17:27;;;;;;;51.92;18.17;;;;;;;;;;4964039;28;20042;-44
2021/12/05 06:19:54;;;;;;;50.97;17.52;;;;;;;;;;4968653;28;20062;-44
2021/12/05 06:22:20;;;;;;;47.40;16.25;;;;;;;;;;4965075;28;20051;-44
2021/12/05 06:24:46;;;;;;;40.72;16.15;;;;;;;;;;4966792;28;20105;-45
2021/12/05 06:27:12;;;;;;;50.38;15.82;;;;;;;;;;4962007;28;20027;-44
2021/12/05 06:29:46;;;;;;;42.10;16.83;;;;;;;;;;4967856;28;20014;-45
2021/12/05 06:37:35;;;;;;;35.08;14.25;;;;;;;;;;4970353;28;20403;-44
2021/12/05 06:47:44;;;;;;;32.50;14.20;;;;;;;;;;4964813;28;20101;-43
2021/12/05 06:50:10;;;;;;;26.63;11.95;;;;;;;;;;4965824;28;20023;-44
2021/12/05 06:52:36;;;;;;;35.33;14.38;;;;;;;;;;4960632;28;20061;-43
2021/12/05 06:55:02;;;;;;;27.17;11.77;;;;;;;;;;4966774;28;20062;-46
2021/12/05 06:57:28;;;;;;;26.50;13.13;;;;;;;;;;4962473;28;20023;-44
2021/12/05 06:59:54;;;;;;;29.33;11.93;;;;;;;;;;4968520;28;20019;-45
2021/12/05 07:02:21;;;;;;;26.90;11.68;;;;;;;;;;4962769;28;20023;-43
2021/12/05 07:05:12;;;;;;;27.00;12.05;;;;;;;;;;4959611;28;20019;-44
2021/12/05 07:07:41;;;;;;;24.50;11.40;;;;;;;;;;4956053;28;20035;-45
2021/12/05 07:10:08;;;;;;;21.60;10.73;;;;;;;;;;4963498;28;20055;-44
2021/12/05 07:15:16;;;;;;;24.33;11.05;;;;;;;;;;4958507;28;20427;-44
2021/12/05 07:26:05;;;;;;;19.90;8.77;;;;;;;;;;4966538;28;19929;-38
2021/12/05 07:42:23;;;;;;;18.40;8.43;;;;;;;;;;4967161;28;20117;-39
2021/12/05 07:44:50;;;;;;;18.70;9.13;;;;;;;;;;4969543;28;20105;-41
2021/12/05 07:47:19;;;;;;;19.75;9.27;;;;;;;;;;4969196;28;20434;-39
2021/12/05 07:49:47;;;;;;;22.27;9.60;;;;;;;;;;4969769;28;20034;-38
2021/12/05 07:52:17;;;;;;;22.30;10.00;;;;;;;;;;4970295;28;20030;-38
2021/12/05 07:54:47;;;;;;;21.92;9.98;;;;;;;;;;4969373;28;20038;-39
2021/12/05 07:59:56;;;;;;;18.60;9.00;;;;;;;;;;4967557;28;20116;-37
2021/12/05 08:16:13;;;;;;;19.92;9.18;;;;;;;;;;4968688;28;20112;-38
2021/12/05 08:18:39;;;;;;;19.92;10.02;;;;;;;;;;5022131;23;20049;-33
2021/12/05 08:21:06;;;;;;;21.67;9.20;;;;;;;;;;5008978;28;20068;-33
2021/12/05 08:23:32;;;;;;;17.10;8.52;;;;;;;;;;5003643;28;20022;-33
2021/12/05 08:26:06;;;;;;;18.48;8.77;;;;;;;;;;5005748;28;20629;-33
2021/12/05 08:31:25;;;;;;;19.05;9.40;;;;;;;;;;5007902;28;20045;-38
2021/12/05 08:39:21;;;;;;;24.52;11.05;;;;;;;;;;5014362;28;20418;-35
2021/12/05 09:25:08;;;;;;;20.45;10.85;;;;;;;;;;5009335;28;20121;-35
2021/12/05 10:03:05;;;;;;;12.57;7.35;;;;;;;;;;5003521;28;20044;-35
2021/12/05 10:16:12;;;;;;;10.75;6.03;;;;;;;;;;5011265;28;20049;-32
2021/12/05 10:19:23;;;;;;;10.30;6.35;;;;;;;;;;5009494;28;20033;-34
2021/12/05 10:35:50;;;;;;;10.88;6.75;;;;;;;;;;5010626;28;20123;-34
2021/12/05 10:38:21;;;;;;;9.55;6.05;;;;;;;;;;5012049;28;20052;-33
2021/12/05 10:40:54;;;;;;;9.68;6.28;;;;;;;;;;5016637;28;20523;-34
2021/12/05 10:43:23;;;;;;;10.20;5.32;;;;;;;;;;5013571;28;20026;-34
2021/12/05 10:45:50;;;;;;;9.63;6.15;;;;;;;;;;5007245;28;20033;-36
2021/12/05 10:48:21;;;;;;;9.05;5.80;;;;;;;;;;5009804;28;20061;-34
2021/12/05 10:51:01;;;;;;;9.25;6.00;;;;;;;;;;5008926;28;20025;-33
2021/12/05 10:53:29;;;;;;;10.05;6.00;;;;;;;;;;5010395;28;20056;-34
2021/12/05 10:56:13;;;;;;;9.27;5.60;;;;;;;;;;5007921;28;20026;-34
2021/12/05 10:58:51;;;;;;;8.57;5.80;;;;;;;;;;5007462;28;20104;-33
2021/12/05 11:01:20;;;;;;;8.07;5.40;;;;;;;;;;5013744;28;20040;-36
2021/12/05 11:03:46;;;;;;;8.48;6.00;;;;;;;;;;5009880;28;20030;-34
2021/12/05 11:06:20;;;;;;;25.77;13.70;;;;;;;;;;5008423;28;20022;-34
2021/12/05 11:08:46;;;;;;;10.15;5.82;;;;;;;;;;5021273;28;20029;-34
2021/12/05 11:11:13;;;;;;;10.27;6.95;;;;;;;;;;5013489;28;20056;-34
2021/12/05 11:13:41;;;;;;;15.00;8.40;;;;;;;;;;5011998;28;20034;-35
2021/12/05 11:16:26;;;;;;;10.25;6.38;;;;;;;;;;5011581;28;20091;-34
2021/12/05 11:18:52;;;;;;;10.93;6.07;;;;;;;;;;5011302;28;20065;-36
2021/12/05 11:21:25;;;;;;;11.27;6.95;;;;;;;;;;5009257;28;20030;-36
2021/12/05 11:24:09;;;;;;;14.63;8.30;;;;;;;;;;5010645;28;20052;-36
2021/12/05 11:26:36;;;;;;;12.68;8.05;;;;;;;;;;5009595;28;20034;-36
2021/12/05 11:29:02;;;;;;;11.98;7.07;;;;;;;;;;5010927;28;20033;-36
2021/12/05 11:31:29;;;;;;;10.25;6.57;;;;;;;;;;5010917;28;20499;-36
2021/12/05 11:33:56;;;;;;;11.82;7.45;;;;;;;;;;5010681;28;20033;-35
2021/12/05 11:36:26;;;;;;;30.83;15.65;;;;;;;;;;5006746;28;20076;-34
2021/12/05 11:38:53;;;;;;;38.65;19.90;;;;;;;;;;5007146;28;20496;-36
2021/12/05 11:41:20;;;;;;;30.33;16.20;;;;;;;;;;5009951;28;20049;-36
2021/12/05 11:43:59;;;;;;;23.40;13.48;;;;;;;;;;5010094;28;20049;-34
2021/12/05 11:46:27;;;;;;;18.67;11.27;;;;;;;;;;5009464;28;20508;-36
2021/12/05 11:48:56;;;;;;;19.38;11.75;;;;;;;;;;5010246;28;20021;-35
2021/12/05 11:51:41;;;;;;;23.33;12.75;;;;;;;;;;5007374;28;20351;-34
2021/12/05 11:54:16;;;;;;;20.13;10.95;;;;;;;;;;5005547;28;20488;-35
2021/12/05 11:56:42;;;;;;;20.48;11.35;;;;;;;;;;5008457;28;20061;-36
2021/12/05 11:59:10;;;;;;;21.10;12.05;;;;;;;;;;5011653;28;20351;-34
2021/12/05 12:01:40;;;;;;;19.17;11.45;;;;;;;;;;5008058;28;20022;-36
2021/12/05 12:04:07;;;;;;;20.95;10.88;;;;;;;;;;5008163;28;20481;-36
2021/12/05 12:06:33;;;;;;;19.73;10.52;;;;;;;;;;5007821;28;20056;-36
2021/12/05 12:08:59;;;;;;;22.80;12.90;;;;;;;;;;5018536;28;20025;-35
2021/12/05 12:11:25;;;;;;;20.70;11.98;;;;;;;;;;5010045;28;20065;-35
2021/12/05 12:13:51;;;;;;;23.70;12.25;;;;;;;;;;5005808;28;20104;-35
2021/12/05 12:16:18;;;;;;;25.85;13.07;;;;;;;;;;5011206;28;20033;-36
2021/12/05 12:18:47;;;;;;;26.23;12.98;;;;;;;;;;4994402;28;20142;-35
2021/12/05 12:21:18;;;;;;;23.05;12.88;;;;;;;;;;4995182;28;20017;-33
2021/12/05 12:23:44;;;;;;;23.10;13.80;;;;;;;;;;5009952;28;20050;-35
2021/12/05 12:26:10;;;;;;;28.98;15.23;;;;;;;;;;5006739;28;20501;-35
2021/12/05 12:28:37;;;;;;;26.48;14.65;;;;;;;;;;5007537;28;20030;-35
2021/12/05 12:31:12;;;;;;;28.65;15.52;;;;;;;;;;5006106;28;20069;-36
2021/12/05 12:33:58;;;;;;;31.98;15.27;;;;;;;;;;5007675;28;20029;-36
2021/12/05 12:36:50;;;;;;;35.65;16.77;;;;;;;;;;5010857;28;20753;-34
2021/12/05 12:39:16;;;;;;;30.38;15.38;;;;;;;;;;5003291;28;20504;-36
2021/12/05 12:41:43;;;;;;;29.30;15.20;;;;;;;;;;5009093;28;20037;-35
2021/12/05 12:44:09;;;;;;;27.58;15.15;;;;;;;;;;5008158;28;20021;-35
2021/12/05 12:46:52;;;;;;;36.20;19.08;;;;;;;;;;5010772;28;20026;-37
2021/12/05 12:49:18;;;;;;;31.63;16.25;;;;;;;;;;5004547;28;20065;-37
2021/12/05 12:51:47;;;;;;;33.35;16.20;;;;;;;;;;5000847;28;20026;-36
2021/12/05 12:54:17;;;;;;;33.88;17.17;;;;;;;;;;5009735;28;20148;-38
2021/12/05 12:56:59;;;;;;;32.28;16.10;;;;;;;;;;5015327;28;20381;-38
2021/12/05 12:59:28;;;;;;;33.95;17.02;;;;;;;;;;5001687;28;20022;-35
2021/12/05 13:10:04;;;;;;;36.20;17.08;;;;;;;;;;5010529;28;20037;-35
2021/12/05 13:12:32;;;;;;;33.57;17.00;;;;;;;;;;5009410;28;20026;-37
2021/12/05 13:15:07;;;;;;;42.90;19.25;;;;;;;;;;5010033;28;20364;-38
2021/12/05 13:17:40;;;;;;;38.38;19.15;;;;;;;;;;5007873;28;20030;-36
2021/12/05 13:20:06;;;;;;;38.25;17.05;;;;;;;;;;5003868;28;20033;-36
2021/12/05 13:22:32;;;;;;;36.78;16.98;;;;;;;;;;5010329;28;20037;-36
2021/12/05 13:25:06;;;;;;;31.77;16.90;;;;;;;;;;5008927;28;20060;-36
2021/12/05 13:27:32;;;;;;;36.65;17.33;;;;;;;;;;5008928;28;20033;-36
2021/12/05 13:29:59;;;;;;;37.08;18.40;;;;;;;;;;5009225;28;20109;-35
2021/12/05 13:32:26;;;;;;;35.30;17.77;;;;;;;;;;5007485;28;20023;-36
2021/12/05 13:34:51;;;;;;;44.58;20.95;;;;;;;;;;5009141;28;20030;-34
2021/12/05 13:37:23;;;;;;;43.38;19.77;;;;;;;;;;5011492;28;20503;-33
2021/12/05 13:40:07;;;;;;;40.97;19.20;;;;;;;;;;5011929;28;20026;-36
2021/12/05 13:42:42;;;;;;;41.05;20.17;;;;;;;;;;5009787;28;20024;-36
2021/12/05 13:45:15;;;;;;;38.22;19.80;;;;;;;;;;5008006;28;20029;-36
2021/12/05 13:47:53;;;;;;;47.00;22.15;;;;;;;;;;5016666;28;20108;-35
2021/12/05 13:52:47;;;;;;;42.10;20.67;;;;;;;;;;5011138;28;20062;-34
2021/12/05 13:55:33;;;;;;;41.55;20.73;;;;;;;;;;5007592;28;20025;-35
2021/12/05 13:58:18;;;;;;;46.08;19.50;;;;;;;;;;5003461;28;20715;-36
2021/12/05 14:00:51;;;;;;;42.95;21.00;;;;;;;;;;5012644;28;20034;-35
2021/12/05 14:03:37;;;;;;;43.25;20.33;;;;;;;;;;5010068;28;20502;-36
2021/12/05 14:06:03;;;;;;;105.68;38.13;;;;;;;;;;5010438;28;20111;-35
2021/12/05 14:08:30;;;;;;;42.42;21.48;;;;;;;;;;5007300;28;20053;-35
2021/12/05 14:10:56;;;;;;;41.42;19.95;;;;;;;;;;5013102;28;20053;-36
2021/12/05 14:13:22;;;;;;;44.20;20.42;;;;;;;;;;5013709;28;20026;-32
2021/12/05 14:15:56;;;;;;;41.17;21.52;;;;;;;;;;5013865;28;20472;-35
2021/12/05 14:18:24;;;;;;;45.03;22.13;;;;;;;;;;5035718;23;20411;-38
2021/12/05 14:20:50;;;;;;;45.17;22.13;;;;;;;;;;5034997;28;20112;-36
2021/12/05 14:23:22;;;;;;;38.03;19.67;;;;;;;;;;5030738;28;20053;-37
2021/12/05 14:25:48;;;;;;;44.72;20.92;;;;;;;;;;5030121;28;20049;-37
2021/12/05 14:28:14;;;;;;;46.45;20.80;;;;;;;;;;5027089;28;20527;-37
2021/12/05 14:30:41;;;;;;;38.95;20.20;;;;;;;;;;5029241;28;20028;-37
2021/12/05 14:33:07;;;;;;;43.58;21.02;;;;;;;;;;5029008;28;20034;-37
2021/12/05 14:35:38;;;;;;;43.28;20.17;;;;;;;;;;5032400;28;20054;-36
2021/12/05 14:38:06;;;;;;;39.80;19.50;;;;;;;;;;5007566;28;20038;-36
2021/12/05 14:40:33;;;;;;;41.20;20.20;;;;;;;;;;5030468;28;20021;-37
2021/12/05 14:43:03;;;;;;;39.33;20.25;;;;;;;;;;5012488;28;20017;-36
2021/12/05 14:45:30;;;;;;;41.75;19.50;;;;;;;;;;5028005;28;20360;-37
2021/12/05 14:48:02;;;;;;;45.42;20.92;;;;;;;;;;5029568;28;20285;-37
2021/12/05 14:50:30;;;;;;;39.80;19.90;;;;;;;;;;5028259;28;20682;-35
2021/12/05 14:52:58;;;;;;;40.25;20.33;;;;;;;;;;5023328;28;20108;-38
2021/12/05 14:55:25;;;;;;;41.17;20.80;;;;;;;;;;5011621;28;20030;-37
2021/12/05 14:57:53;;;;;;;40.10;21.00;;;;;;;;;;5018501;28;20082;-36
2021/12/05 15:00:24;;;;;;;44.75;21.90;;;;;;;;;;5013617;28;20026;-37
2021/12/05 15:02:58;;;;;;;40.85;21.00;;;;;;;;;;5020390;28;20391;-37
2021/12/05 15:05:24;;;;;;;44.35;21.10;;;;;;;;;;5017472;28;20101;-36
2021/12/05 15:07:59;;;;;;;41.63;21.63;;;;;;;;;;5028098;28;20044;-36
2021/12/05 15:10:25;;;;;;;39.95;20.45;;;;;;;;;;5025226;28;21906;-37
2021/12/05 15:12:54;;;;;;;45.47;21.33;;;;;;;;;;5029252;28;20152;-36
2021/12/05 15:15:21;;;;;;;46.40;22.63;;;;;;;;;;5025626;28;20037;-37
2021/12/05 15:17:47;;;;;;;50.15;24.73;;;;;;;;;;5029782;28;20037;-37
2021/12/05 15:20:19;;;;;;;47.15;23.00;;;;;;;;;;5028068;28;20087;-37
2021/12/05 15:22:48;;;;;;;50.03;24.27;;;;;;;;;;5018328;28;20025;-35
2021/12/05 15:25:15;;;;;;;43.38;23.83;;;;;;;;;;5026042;28;20022;-36
2021/12/05 15:27:42;;;;;;;48.05;23.42;;;;;;;;;;5027059;28;20494;-36
2021/12/05 15:30:17;;;;;;;51.88;25.77;;;;;;;;;;5030123;28;20028;-35
2021/12/05 15:32:45;;;;;;;53.00;25.38;;;;;;;;;;5032719;28;20476;-37
2021/12/05 15:35:12;;;;;;;44.15;22.80;;;;;;;;;;5026025;28;20037;-36
2021/12/05 15:37:38;;;;;;;48.10;24.80;;;;;;;;;;5027115;28;20049;-36
2021/12/05 15:40:06;;;;;;;48.08;24.35;;;;;;;;;;5022160;28;20044;-36
2021/12/05 15:42:33;;;;;;;49.65;25.65;;;;;;;;;;5028562;28;20024;-36
2021/12/05 15:45:01;;;;;;;50.03;25.42;;;;;;;;;;5028015;28;20052;-35
2021/12/05 15:47:32;;;;;;;56.03;25.60;;;;;;;;;;5024649;28;20049;-36
2021/12/05 15:50:06;;;;;;;50.70;24.95;;;;;;;;;;5029516;28;20409;-37
2021/12/05 15:52:51;;;;;;;50.88;24.95;;;;;;;;;;5029149;28;20028;-33
2021/12/05 15:55:19;;;;;;;49.53;25.50;;;;;;;;;;5031056;28;20068;-36
2021/12/05 15:57:48;;;;;;;62.90;26.95;;;;;;;;;;5027449;28;20025;-37
2021/12/05 16:00:17;;;;;;;52.78;26.00;;;;;;;;;;5027956;28;20021;-37
2021/12/05 16:02:47;;;;;;;51.30;24.83;;;;;;;;;;5023939;28;20061;-38
2021/12/05 16:05:15;;;;;;;56.35;26.02;;;;;;;;;;5026806;28;20049;-36
2021/12/05 16:07:41;;;;;;;52.80;25.77;;;;;;;;;;5026701;28;20025;-36
2021/12/05 16:10:09;;;;;;;49.05;24.98;;;;;;;;;;5029134;28;20652;-37
2021/12/05 16:12:38;;;;;;;55.20;26.55;;;;;;;;;;5006865;28;20033;-37
2021/12/05 16:15:04;;;;;;;53.67;26.70;;;;;;;;;;5029216;28;20029;-37
2021/12/05 16:17:30;;;;;;;57.03;26.15;;;;;;;;;;5027161;28;20115;-37
2021/12/05 16:20:12;;;;;;;53.63;25.55;;;;;;;;;;5028461;28;20557;-37
2021/12/05 16:22:57;;;;;;;57.38;25.98;;;;;;;;;;5025933;28;20021;-38
2021/12/05 16:25:23;;;;;;;52.93;25.73;;;;;;;;;;5028491;28;20045;-36
2021/12/05 16:27:49;;;;;;;53.85;25.70;;;;;;;;;;5028604;28;20021;-37
2021/12/05 16:30:22;;;;;;;57.80;26.08;;;;;;;;;;5027093;28;20049;-36
2021/12/05 16:32:49;;;;;;;58.40;27.27;;;;;;;;;;5025342;28;20028;-38
2021/12/05 16:35:49;;;;;;;53.08;25.17;;;;;;;;;;5025177;28;20029;-37
2021/12/05 16:38:23;;;;;;;52.60;25.08;;;;;;;;;;4999998;28;20510;-38
2021/12/05 16:40:58;;;;;;;50.88;24.30;;;;;;;;;;5025691;28;20036;-34
2021/12/05 16:43:24;;;;;;;44.53;22.30;;;;;;;;;;5029264;28;20116;-38
2021/12/05 16:45:55;;;;;;;52.88;24.38;;;;;;;;;;5026573;28;20022;-37
2021/12/05 16:48:21;;;;;;;42.75;21.40;;;;;;;;;;5028608;28;20053;-36
2021/12/05 16:50:47;;;;;;;45.00;20.60;;;;;;;;;;5037583;28;20709;-38
2021/12/05 16:53:14;;;;;;;43.70;21.98;;;;;;;;;;5029897;28;20163;-38
2021/12/05 16:55:44;;;;;;;41.30;20.27;;;;;;;;;;5029416;28;20502;-38
2021/12/05 16:58:17;;;;;;;47.60;22.55;;;;;;;;;;5022120;28;20029;-38
2021/12/05 17:00:45;;;;;;;40.20;21.02;;;;;;;;;;5028078;28;20372;-37
2021/12/05 17:03:16;;;;;;;38.33;19.15;;;;;;;;;;5027958;28;20040;-38
2021/12/05 17:05:44;;;;;;;41.83;20.05;;;;;;;;;;5026286;28;20053;-38
2021/12/05 17:08:16;;;;;;;37.88;19.52;;;;;;;;;;5029021;28;20021;-38
2021/12/05 17:10:45;;;;;;;34.78;17.48;;;;;;;;;;5026512;28;20026;-38
2021/12/05 17:13:11;;;;;;;38.78;18.67;;;;;;;;;;5031196;28;20419;-38
2021/12/05 17:15:43;;;;;;;34.65;17.77;;;;;;;;;;5032873;28;20033;-38
2021/12/05 17:18:17;;;;;;;29.08;16.15;;;;;;;;;;5035051;28;20028;-38
2021/12/05 17:20:46;;;;;;;35.72;17.77;;;;;;;;;;5030351;28;20034;-38
2021/12/05 17:23:20;;;;;;;35.05;17.38;;;;;;;;;;5034192;28;20124;-36
2021/12/05 17:25:47;;;;;;;34.17;17.30;;;;;;;;;;5033695;28;20080;-37
2021/12/05 17:28:31;;;;;;;37.95;17.30;;;;;;;;;;5032306;28;20487;-37
2021/12/05 17:30:58;;;;;;;35.22;17.45;;;;;;;;;;5033936;28;20535;-38
2021/12/05 17:33:29;;;;;;;33.28;15.55;;;;;;;;;;5032619;28;20056;-38
2021/12/05 17:35:56;;;;;;;38.03;17.92;;;;;;;;;;5031913;28;20515;-37
2021/12/05 17:38:32;;;;;;;35.97;17.63;;;;;;;;;;5032815;28;20044;-38
2021/12/05 17:40:59;;;;;;;36.17;17.70;;;;;;;;;;5029845;28;20021;-38
2021/12/05 17:43:25;;;;;;;38.80;18.20;;;;;;;;;;5031650;28;20018;-38
2021/12/05 17:45:51;;;;;;;36.00;18.48;;;;;;;;;;5031875;28;20061;-38
2021/12/05 17:48:17;;;;;;;35.63;17.60;;;;;;;;;;5036104;28;20546;-38
2021/12/05 17:50:44;;;;;;;33.58;16.88;;;;;;;;;;5031608;28;20040;-38
2021/12/05 17:53:10;;;;;;;40.50;19.90;;;;;;;;;;5038180;28;20515;-37
2021/12/05 17:55:43;;;;;;;40.92;19.33;;;;;;;;;;5028173;28;20064;-38
2021/12/05 17:58:22;;;;;;;39.03;19.67;;;;;;;;;;5025241;28;20030;-38
2021/12/05 18:02:37;;;;;;;40.95;19.88;;;;;;;;;;5034438;28;20465;-37
2021/12/05 18:03:44;;;;;;;41.75;21.23;;;;;;;;;;5031221;28;20049;-38
2021/12/05 18:06:10;;;;;;;43.03;20.67;;;;;;;;;;5035562;28;20063;-38
2021/12/05 18:08:36;;;;;;;49.15;21.80;;;;;;;;;;5042031;28;20018;-38
2021/12/05 18:11:10;;;;;;;44.42;21.20;;;;;;;;;;5039319;28;20107;-38
2021/12/05 18:13:37;;;;;;;53.17;23.13;;;;;;;;;;5033498;28;20032;-38
2021/12/05 18:16:06;;;;;;;57.47;24.17;;;;;;;;;;5023798;28;20022;-37
2021/12/05 18:18:34;;;;;;;53.83;23.58;;;;;;;;;;5032614;28;20025;-38
2021/12/05 18:21:01;;;;;;;56.40;24.95;;;;;;;;;;5030133;28;20053;-36
2021/12/05 18:23:27;;;;;;;62.47;25.05;;;;;;;;;;5029998;28;20633;-37
2021/12/05 18:25:53;;;;;;;68.35;26.55;;;;;;;;;;5029931;28;20061;-37
2021/12/05 18:28:19;;;;;;;64.82;26.80;;;;;;;;;;5030655;28;20107;-37
2021/12/05 18:30:46;;;;;;;62.60;26.13;;;;;;;;;;5030381;28;20443;-38
2021/12/05 18:33:13;;;;;;;63.92;26.15;;;;;;;;;;5030773;28;20090;-37
2021/12/05 18:35:39;;;;;;;59.67;26.95;;;;;;;;;;5027919;28;20573;-38
2021/12/05 18:38:08;;;;;;;63.00;26.58;;;;;;;;;;5029344;28;20048;-37
2021/12/05 18:40:36;;;;;;;69.20;26.08;;;;;;;;;;5026020;28;20032;-38
2021/12/05 18:43:02;;;;;;;56.17;25.80;;;;;;;;;;5026360;28;20056;-38
2021/12/05 18:45:31;;;;;;;70.05;28.30;;;;;;;;;;5032600;28;20105;-37
2021/12/05 18:47:57;;;;;;;58.45;27.00;;;;;;;;;;5031039;28;20026;-35
2021/12/05 18:50:24;;;;;;;66.05;26.83;;;;;;;;;;5023955;28;20029;-37
2021/12/05 18:52:50;;;;;;;56.28;25.20;;;;;;;;;;5031388;28;20034;-38
2021/12/05 18:55:17;;;;;;;67.18;25.50;;;;;;;;;;5020812;28;20025;-39
2021/12/05 18:57:44;;;;;;;66.82;27.45;;;;;;;;;;5031145;28;20461;-37
2021/12/05 19:00:14;;;;;;;67.65;27.10;;;;;;;;;;5015389;28;20422;-37
2021/12/05 19:05:39;;;;;;;70.70;29.40;;;;;;;;;;5013809;28;20075;-38
2021/12/05 19:13:17;;;;;;;73.28;29.27;;;;;;;;;;5028832;28;20120;-38
2021/12/05 19:15:43;;;;;;;77.78;29.58;;;;;;;;;;5035791;28;20112;-39
2021/12/05 19:18:09;;;;;;;79.05;29.90;;;;;;;;;;5036488;28;20047;-38
2021/12/05 19:20:35;;;;;;;64.93;28.67;;;;;;;;;;5034789;28;20421;-38
2021/12/05 19:23:02;;;;;;;74.68;29.45;;;;;;;;;;5031077;28;20481;-37
2021/12/05 19:25:31;;;;;;;69.30;29.30;;;;;;;;;;5029594;28;20056;-38
2021/12/05 19:27:57;;;;;;;74.57;31.23;;;;;;;;;;5029924;28;20071;-38
2021/12/05 19:30:35;;;;;;;82.25;30.27;;;;;;;;;;5028354;28;20048;-37
2021/12/05 19:33:03;;;;;;;65.72;29.73;;;;;;;;;;5024906;28;20057;-38
2021/12/05 19:35:29;;;;;;;71.35;28.00;;;;;;;;;;5029725;28;20156;-38
2021/12/05 19:37:55;;;;;;;73.72;28.88;;;;;;;;;;5029978;28;20136;-38
2021/12/05 19:40:22;;;;;;;64.97;27.73;;;;;;;;;;5032671;28;20088;-37
2021/12/05 19:42:49;;;;;;;70.85;28.50;;;;;;;;;;5025310;28;20022;-38
2021/12/05 19:45:15;;;;;;;65.30;29.42;;;;;;;;;;5018853;28;20057;-37
2021/12/05 19:47:41;;;;;;;66.63;27.80;;;;;;;;;;5023321;28;20022;-37
2021/12/05 19:50:09;;;;;;;70.78;28.55;;;;;;;;;;5030026;28;20526;-38